Time;durP1;ratioP1;P1;durP2;ratioP2;P2;SDS_P1;SDS_P2;PMS_P1;PMS_P2;Temp;Humidity;BMP_temperature;BMP_pressure;BME280_temperature;BME280_humidity;BME280_pressure;Samples;Min_cycle;Max_cycle;Signal;HPM_P1;HPM_P2
2024/01/14 08:45:09;;;;;;;10.33;3.17;;;1.60;99.90;;;;;;678372;23;21303;-75
2024/01/14 08:47:38;;;;;;;11.70;2.70;;;1.70;99.90;;;;;;4860920;29;20219;-76
2024/01/14 08:50:06;;;;;;;13.47;3.93;;;1.60;99.90;;;;;;4864438;29;20208;-75
2024/01/14 08:52:33;;;;;;;12.67;3.43;;;1.50;99.90;;;;;;4876487;29;20696;-74
2024/01/14 08:55:00;;;;;;;8.90;2.60;;;1.50;99.90;;;;;;4853952;29;20692;-74
2024/01/14 08:57:27;;;;;;;11.03;3.37;;;1.60;99.90;;;;;;4881218;29;20574;-73
2024/01/14 08:59:53;;;;;;;10.07;3.23;;;1.60;99.90;;;;;;4881552;29;20643;-76
2024/01/14 09:02:20;;;;;;;9.73;3.33;;;1.60;99.90;;;;;;4875112;29;20227;-76
2024/01/14 09:04:48;;;;;;;14.33;3.50;;;1.70;99.90;;;;;;4861915;29;20212;-76
2024/01/14 09:07:15;;;;;;;11.63;4.07;;;1.70;99.90;;;;;;4878982;29;20207;-76
2024/01/14 09:09:42;;;;;;;15.67;3.37;;;1.80;99.90;;;;;;4881365;29;20238;-75
2024/01/14 09:12:10;;;;;;;9.13;2.87;;;1.60;99.90;;;;;;4880261;29;20227;-75
2024/01/14 09:14:36;;;;;;;10.60;3.47;;;1.70;99.90;;;;;;4862313;29;20656;-75
2024/01/14 09:17:03;;;;;;;5.77;2.70;;;1.80;99.90;;;;;;4877833;29;20314;-74
2024/01/14 09:19:30;;;;;;;9.53;3.60;;;1.70;99.90;;;;;;4881540;29;20337;-78
2024/01/14 09:21:58;;;;;;;11.73;3.30;;;1.80;99.90;;;;;;4882495;29;20654;-85
2024/01/14 09:24:26;;;;;;;9.03;3.30;;;1.80;99.90;;;;;;4858686;29;20216;-87
2024/01/14 09:26:52;;;;;;;8.47;3.33;;;1.80;99.90;;;;;;4874512;29;20215;-77
2024/01/14 09:29:19;;;;;;;8.47;2.77;;;1.80;99.90;;;;;;4881265;29;20248;-80
2024/01/14 09:31:46;;;;;;;9.50;2.90;;;1.80;99.90;;;;;;4880137;29;20289;-78
2024/01/14 09:34:13;;;;;;;13.03;3.43;;;1.80;99.90;;;;;;4863661;29;20226;-78
2024/01/14 09:36:41;;;;;;;10.07;3.03;;;1.80;99.90;;;;;;4872187;29;20296;-78
2024/01/14 09:39:10;;;;;;;9.73;3.10;;;1.80;99.90;;;;;;4871608;29;20204;-79
2024/01/14 09:41:43;;;;;;;6.60;2.87;;;1.90;99.90;;;;;;4864022;29;20253;-81
2024/01/14 09:44:14;;;;;;;9.77;3.57;;;2.00;99.90;;;;;;4861280;29;20212;-80
2024/01/14 09:46:41;;;;;;;11.50;3.17;;;2.00;99.90;;;;;;4871412;29;20307;-82
2024/01/14 09:49:11;;;;;;;12.37;3.67;;;2.10;99.90;;;;;;4879118;29;20303;-79
2024/01/14 09:51:38;;;;;;;11.90;3.17;;;2.00;99.90;;;;;;4879326;29;20574;-79
2024/01/14 09:54:05;;;;;;;10.63;2.97;;;2.00;99.90;;;;;;4863871;29;20247;-82
2024/01/14 09:56:35;;;;;;;10.30;4.30;;;1.90;99.90;;;;;;4870442;29;20623;-79
2024/01/14 09:59:03;;;;;;;9.50;3.03;;;2.10;99.90;;;;;;4879286;29;20774;-76
2024/01/14 10:01:32;;;;;;;11.20;3.90;;;2.20;99.90;;;;;;4879473;29;20246;-78
2024/01/14 10:04:01;;;;;;;9.30;2.80;;;2.30;99.90;;;;;;4865312;29;20208;-76
2024/01/14 10:06:28;;;;;;;8.43;2.50;;;2.50;99.90;;;;;;4868487;29;20203;-78
2024/01/14 10:08:55;;;;;;;9.73;3.53;;;2.50;99.90;;;;;;4877763;29;20309;-78
2024/01/14 10:11:22;;;;;;;9.80;3.27;;;2.30;99.90;;;;;;4868035;29;20251;-78
2024/01/14 10:13:51;;;;;;;10.97;2.90;;;2.50;99.90;;;;;;4866292;29;20660;-76
2024/01/14 10:16:18;;;;;;;8.70;3.00;;;2.60;99.90;;;;;;4865320;29;20627;-78
2024/01/14 10:18:45;;;;;;;11.03;4.23;;;2.80;99.90;;;;;;4879012;29;20301;-77
2024/01/14 10:21:12;;;;;;;10.87;3.87;;;2.80;99.90;;;;;;4874219;29;20326;-79
2024/01/14 10:23:40;;;;;;;7.83;3.40;;;2.80;99.90;;;;;;4858952;29;20236;-77
2024/01/14 10:26:07;;;;;;;6.80;2.53;;;2.70;99.90;;;;;;4864941;29;20314;-77
2024/01/14 10:28:34;;;;;;;8.87;3.30;;;2.70;99.90;;;;;;4879029;29;20667;-77
2024/01/14 10:31:03;;;;;;;5.13;2.13;;;2.50;99.90;;;;;;4878158;29;20207;-79
2024/01/14 10:33:32;;;;;;;7.43;2.63;;;2.50;99.90;;;;;;4867820;29;20331;-78
2024/01/14 10:35:59;;;;;;;7.97;2.47;;;2.50;99.90;;;;;;4862726;29;20206;-77
2024/01/14 10:38:28;;;;;;;7.13;3.13;;;2.40;99.90;;;;;;4864475;29;20272;-79
2024/01/14 10:40:55;;;;;;;9.10;3.43;;;2.40;99.90;;;;;;4861794;29;20244;-77
2024/01/14 10:43:24;;;;;;;8.50;3.20;;;2.50;99.90;;;;;;4868523;29;20223;-74
2024/01/14 10:45:51;;;;;;;8.13;3.10;;;2.70;99.90;;;;;;4860795;29;20251;-79
2024/01/14 10:48:24;;;;;;;10.33;3.50;;;2.70;99.90;;;;;;4876654;29;20306;-78
2024/01/14 10:50:55;;;;;;;11.90;3.50;;;2.70;99.90;;;;;;4860281;29;20208;-78
2024/01/14 10:53:24;;;;;;;8.97;2.73;;;2.80;99.90;;;;;;4869143;29;20711;-80
2024/01/14 10:55:59;;;;;;;10.77;3.00;;;2.80;99.90;;;;;;4862673;29;20208;-84
2024/01/14 10:58:29;;;;;;;12.57;3.60;;;2.80;99.90;;;;;;4862642;29;20743;-84
2024/01/14 11:01:00;;;;;;;6.27;2.53;;;2.90;99.90;;;;;;4863191;29;20243;-80
2024/01/14 11:03:29;;;;;;;9.10;3.73;;;2.80;99.90;;;;;;4862445;29;20231;-83
2024/01/14 11:05:57;;;;;;;12.07;3.17;;;2.80;99.90;;;;;;4862603;29;20295;-85
2024/01/14 11:08:24;;;;;;;12.47;3.07;;;2.80;99.90;;;;;;4862674;29;20214;-82
2024/01/14 11:10:53;;;;;;;10.23;3.33;;;2.80;99.90;;;;;;4862738;29;20243;-84
2024/01/14 11:13:26;;;;;;;10.67;3.23;;;2.60;99.90;;;;;;4862716;29;20318;-85
2024/01/14 11:16:00;;;;;;;9.23;3.13;;;2.50;99.90;;;;;;4863866;29;20227;-85
2024/01/14 11:18:35;;;;;;;11.97;5.50;;;2.60;99.90;;;;;;4863138;29;20682;-85
2024/01/14 11:21:16;;;;;;;13.27;3.60;;;2.70;99.90;;;;;;4862001;29;20749;-86
2024/01/14 11:23:43;;;;;;;9.17;3.57;;;2.60;99.90;;;;;;4863201;29;20295;-83
2024/01/14 11:26:10;;;;;;;12.20;4.50;;;2.70;99.90;;;;;;4863880;29;20223;-85
2024/01/14 11:28:38;;;;;;;9.57;3.53;;;2.80;99.90;;;;;;4864633;29;20743;-84
2024/01/14 11:31:06;;;;;;;9.83;3.80;;;2.70;99.90;;;;;;4864283;29;20208;-84
2024/01/14 11:33:40;;;;;;;6.80;2.90;;;2.60;99.90;;;;;;4863503;29;20232;-82
2024/01/14 11:36:08;;;;;;;12.50;3.80;;;2.50;99.90;;;;;;4862636;29;20628;-86
2024/01/14 11:38:35;;;;;;;10.43;3.00;;;2.50;99.90;;;;;;4862027;29;20683;-87
2024/01/14 11:41:29;;;;;;;9.30;3.40;;;2.40;99.90;;;;;;4862185;29;20259;-83
2024/01/14 11:43:58;;;;;;;10.77;3.83;;;2.30;99.90;;;;;;4861680;29;20299;-85
2024/01/14 11:46:42;;;;;;;13.33;4.90;;;2.50;99.90;;;;;;4862247;29;20227;-84
2024/01/14 11:49:11;;;;;;;8.77;3.43;;;2.60;99.90;;;;;;4864004;29;20208;-86
2024/01/14 11:51:44;;;;;;;13.47;5.63;;;2.60;99.90;;;;;;4865239;29;20664;-83
2024/01/14 11:54:12;;;;;;;11.27;3.53;;;2.50;99.90;;;;;;4862490;29;20215;-82
2024/01/14 11:56:39;;;;;;;10.07;4.17;;;2.60;99.90;;;;;;4865052;29;20212;-85
2024/01/14 11:59:09;;;;;;;10.77;3.93;;;2.60;99.90;;;;;;4865380;29;20207;-86
2024/01/14 12:01:36;;;;;;;10.20;3.87;;;2.60;99.90;;;;;;4865077;29;20729;-84
2024/01/14 12:04:04;;;;;;;10.93;3.67;;;2.60;99.90;;;;;;4865457;29;20671;-84
2024/01/14 12:06:39;;;;;;;12.87;4.70;;;2.50;99.90;;;;;;4865737;29;20247;-84
2024/01/14 12:09:07;;;;;;;11.13;3.70;;;2.70;99.90;;;;;;4865742;29;20255;-82
2024/01/14 12:11:35;;;;;;;14.87;3.43;;;2.80;99.90;;;;;;4865478;29;20244;-84
2024/01/14 12:14:02;;;;;;;14.43;3.83;;;2.90;99.90;;;;;;4865517;29;20272;-82
2024/01/14 12:16:28;;;;;;;11.27;4.00;;;2.90;99.90;;;;;;4865875;29;20251;-82
2024/01/14 12:18:55;;;;;;;11.40;4.30;;;2.90;99.90;;;;;;4864758;29;20685;-83
2024/01/14 12:21:23;;;;;;;13.67;4.30;;;2.90;99.90;;;;;;4864437;29;20239;-83
2024/01/14 12:23:52;;;;;;;11.53;4.13;;;2.80;99.90;;;;;;4864697;29;20303;-84
2024/01/14 12:26:20;;;;;;;8.60;3.63;;;2.70;99.90;;;;;;4865028;29;20223;-84
2024/01/14 12:28:47;;;;;;;9.60;3.40;;;2.50;99.90;;;;;;4865178;29;20311;-76
2024/01/14 12:31:19;;;;;;;6.93;2.73;;;2.70;99.90;;;;;;4864558;29;20216;-82
2024/01/14 12:33:46;;;;;;;14.40;3.23;;;2.50;99.90;;;;;;4864979;29;20215;-82
2024/01/14 12:36:13;;;;;;;9.17;3.40;;;2.50;99.90;;;;;;4865237;29;20224;-82
2024/01/14 12:38:40;;;;;;;11.40;3.53;;;2.50;99.90;;;;;;4864687;29;20295;-83
2024/01/14 12:41:08;;;;;;;13.10;3.97;;;2.40;99.90;;;;;;4869285;29;20244;-80
2024/01/14 12:43:35;;;;;;;13.00;3.83;;;2.30;99.90;;;;;;4866592;29;20239;-81
2024/01/14 12:46:04;;;;;;;10.00;4.03;;;2.50;99.90;;;;;;4863540;29;20738;-80
2024/01/14 12:48:31;;;;;;;11.40;3.43;;;2.60;99.90;;;;;;4863981;29;20218;-81
2024/01/14 12:51:00;;;;;;;9.40;3.00;;;2.70;99.90;;;;;;4866426;29;20222;-80
2024/01/14 12:53:28;;;;;;;19.90;6.03;;;2.60;99.90;;;;;;4865143;29;20260;-78
2024/01/14 12:56:10;;;;;;;11.37;3.43;;;2.60;99.90;;;;;;4870890;29;20638;-79
2024/01/14 12:58:37;;;;;;;15.70;3.83;;;2.50;99.90;;;;;;4867810;29;20219;-81
2024/01/14 13:01:05;;;;;;;12.07;3.23;;;2.40;99.90;;;;;;4867105;29;20595;-81
2024/01/14 13:03:32;;;;;;;10.03;3.33;;;2.30;99.90;;;;;;4865740;29;20338;-80
2024/01/14 13:06:00;;;;;;;9.03;3.73;;;2.30;99.90;;;;;;4866664;29;20223;-81
2024/01/14 13:08:26;;;;;;;13.57;4.17;;;2.30;99.90;;;;;;4864979;29;20302;-81
2024/01/14 13:10:53;;;;;;;9.10;3.70;;;2.20;99.90;;;;;;4866520;29;20219;-82
2024/01/14 13:13:21;;;;;;;15.90;3.93;;;2.10;99.90;;;;;;4865817;29;20322;-80
2024/01/14 13:15:48;;;;;;;13.73;4.23;;;2.10;99.90;;;;;;4864683;29;20226;-81
2024/01/14 13:18:15;;;;;;;9.90;3.63;;;2.20;99.90;;;;;;4865256;29;20315;-81
2024/01/14 13:20:42;;;;;;;9.67;3.13;;;1.90;99.90;;;;;;4864219;29;20295;-81
2024/01/14 13:23:09;;;;;;;10.37;3.90;;;1.80;99.90;;;;;;4863656;29;20232;-82
2024/01/14 13:25:36;;;;;;;16.03;4.07;;;1.90;99.90;;;;;;4863581;29;20207;-82
2024/01/14 13:28:04;;;;;;;5.90;2.43;;;1.90;99.90;;;;;;4864076;29;20212;-79
2024/01/14 13:30:32;;;;;;;10.97;4.30;;;1.90;99.90;;;;;;4863725;29;20281;-82
2024/01/14 13:32:59;;;;;;;5.23;2.80;;;1.90;99.90;;;;;;4863573;29;20323;-81
2024/01/14 13:35:26;;;;;;;12.27;3.47;;;1.90;99.90;;;;;;4863672;29;20672;-81
2024/01/14 13:37:53;;;;;;;8.43;3.17;;;1.80;99.90;;;;;;4863143;29;20308;-81
2024/01/14 13:40:19;;;;;;;10.70;3.87;;;1.80;99.90;;;;;;4863724;29;20215;-82
2024/01/14 13:42:46;;;;;;;8.60;2.87;;;1.80;99.90;;;;;;4862888;29;20338;-81
2024/01/14 13:45:14;;;;;;;10.60;2.73;;;1.90;99.90;;;;;;4863260;29;20220;-81
2024/01/14 13:47:43;;;;;;;11.70;4.30;;;1.80;99.90;;;;;;4863241;29;20235;-80
2024/01/14 13:50:10;;;;;;;11.10;4.03;;;1.80;99.90;;;;;;4865298;29;20218;-80
2024/01/14 13:52:37;;;;;;;9.43;3.73;;;1.70;99.90;;;;;;4866699;29;20232;-81
2024/01/14 13:55:05;;;;;;;11.47;4.10;;;1.80;99.90;;;;;;4865290;29;20295;-81
2024/01/14 13:57:32;;;;;;;7.97;3.33;;;1.80;99.90;;;;;;4867699;29;20234;-81
2024/01/14 13:59:58;;;;;;;10.03;3.43;;;1.80;99.90;;;;;;4871938;29;20236;-82
2024/01/14 14:02:26;;;;;;;10.50;4.67;;;1.70;99.90;;;;;;4862878;29;20330;-81
2024/01/14 14:04:54;;;;;;;13.90;3.80;;;1.80;99.90;;;;;;4863099;29;20216;-81
2024/01/14 14:07:21;;;;;;;11.77;3.43;;;1.80;99.90;;;;;;4862905;29;20208;-80
2024/01/14 14:09:48;;;;;;;8.57;3.40;;;1.80;99.90;;;;;;4863420;29;20219;-81
2024/01/14 14:12:15;;;;;;;9.63;3.17;;;1.70;99.90;;;;;;4862763;29;20238;-82
2024/01/14 14:14:43;;;;;;;11.13;2.73;;;1.60;99.90;;;;;;4862933;29;20220;-83
2024/01/14 14:17:11;;;;;;;9.00;3.10;;;1.60;99.90;;;;;;4863680;29;20616;-81
2024/01/14 14:19:37;;;;;;;13.40;3.57;;;1.50;99.90;;;;;;4864650;29;20237;-80
2024/01/14 14:22:06;;;;;;;7.97;2.93;;;1.40;99.90;;;;;;4864251;29;20247;-79
2024/01/14 14:24:32;;;;;;;6.43;3.33;;;1.50;99.90;;;;;;4863217;29;20279;-80
2024/01/14 14:26:59;;;;;;;13.50;3.90;;;1.60;99.90;;;;;;4862774;29;20311;-81
2024/01/14 14:29:26;;;;;;;13.07;3.97;;;1.50;99.90;;;;;;4861964;29;20307;-80
2024/01/14 14:31:53;;;;;;;12.27;3.73;;;1.60;99.90;;;;;;4862508;29;20330;-81
2024/01/14 14:34:20;;;;;;;9.90;3.00;;;1.60;99.90;;;;;;4862337;29;20230;-78
2024/01/14 14:36:47;;;;;;;12.00;3.37;;;1.60;99.90;;;;;;4862230;29;20302;-81
2024/01/14 14:39:15;;;;;;;14.93;4.07;;;1.60;99.90;;;;;;4862432;29;20303;-81
2024/01/14 14:41:42;;;;;;;10.40;2.53;;;1.60;99.90;;;;;;4864907;29;20239;-81
2024/01/14 14:44:10;;;;;;;7.03;2.87;;;1.60;99.90;;;;;;4864118;29;20248;-81
2024/01/14 14:46:37;;;;;;;9.70;3.67;;;1.50;99.90;;;;;;4864231;29;20263;-82
2024/01/14 14:49:04;;;;;;;13.10;3.73;;;1.50;99.90;;;;;;4863174;29;20211;-81
2024/01/14 14:51:31;;;;;;;8.60;2.23;;;1.60;99.90;;;;;;4863562;29;20579;-83
2024/01/14 14:53:58;;;;;;;8.37;3.33;;;1.60;99.90;;;;;;4862530;29;20310;-82
2024/01/14 14:56:26;;;;;;;14.40;4.50;;;1.60;99.90;;;;;;4862130;29;20378;-78
2024/01/14 14:58:53;;;;;;;9.20;2.47;;;1.60;99.90;;;;;;4862507;29;20664;-83
2024/01/14 15:01:20;;;;;;;9.47;3.30;;;1.50;99.90;;;;;;4861657;29;20330;-84
2024/01/14 15:03:47;;;;;;;9.40;2.67;;;1.50;99.90;;;;;;4861614;29;20314;-82
2024/01/14 15:06:14;;;;;;;6.63;2.77;;;1.60;99.90;;;;;;4862287;29;20298;-82
2024/01/14 15:08:41;;;;;;;10.00;2.77;;;1.50;99.90;;;;;;4861983;29;20299;-83
2024/01/14 15:11:08;;;;;;;11.03;3.33;;;1.50;99.90;;;;;;4861789;29;20208;-83
2024/01/14 15:13:36;;;;;;;9.93;3.50;;;1.50;99.90;;;;;;4862123;29;20238;-81
2024/01/14 15:16:03;;;;;;;7.73;2.73;;;1.50;99.90;;;;;;4862278;29;20223;-80
2024/01/14 15:18:30;;;;;;;7.67;2.17;;;1.50;99.90;;;;;;4862702;29;20216;-82
2024/01/14 15:20:57;;;;;;;8.23;2.93;;;1.40;99.90;;;;;;4862981;29;20294;-83
2024/01/14 15:23:23;;;;;;;7.13;2.73;;;1.40;99.90;;;;;;4864179;29;20246;-81
2024/01/14 15:25:50;;;;;;;10.87;3.23;;;1.30;99.90;;;;;;4863239;29;20307;-80
2024/01/14 15:28:17;;;;;;;7.60;2.90;;;1.30;99.90;;;;;;4861579;29;20216;-81
2024/01/14 15:30:45;;;;;;;10.50;3.80;;;1.30;99.90;;;;;;4860787;29;20306;-81
2024/01/14 15:33:12;;;;;;;5.03;3.07;;;1.40;99.90;;;;;;4861937;29;20255;-81
2024/01/14 15:35:39;;;;;;;9.90;3.27;;;1.50;99.90;;;;;;4861609;29;20575;-82
2024/01/14 15:38:06;;;;;;;8.33;3.37;;;1.50;99.90;;;;;;4861527;29;20255;-82
2024/01/14 15:40:33;;;;;;;7.70;2.33;;;1.50;99.90;;;;;;4861181;29;20230;-80
2024/01/14 15:43:00;;;;;;;7.07;3.03;;;1.40;99.90;;;;;;4860600;29;20243;-82
2024/01/14 15:45:28;;;;;;;8.90;3.10;;;1.30;99.90;;;;;;4860191;29;20224;-81
2024/01/14 15:47:56;;;;;;;12.97;4.03;;;1.30;99.90;;;;;;4860518;29;20307;-83
2024/01/14 15:50:23;;;;;;;7.33;3.70;;;1.20;99.90;;;;;;4861380;29;20219;-78
2024/01/14 15:52:50;;;;;;;13.07;4.80;;;1.40;99.90;;;;;;4860826;29;20231;-82
2024/01/14 15:55:17;;;;;;;10.27;4.13;;;1.30;99.90;;;;;;4861335;29;20305;-76
2024/01/14 15:57:44;;;;;;;6.93;3.07;;;1.30;99.90;;;;;;4861281;29;20314;-82
2024/01/14 16:00:11;;;;;;;9.77;3.60;;;1.30;99.90;;;;;;4860429;29;20219;-82
2024/01/14 16:02:38;;;;;;;12.60;3.53;;;1.20;99.90;;;;;;4860706;29;20248;-82
2024/01/14 16:05:07;;;;;;;17.53;3.60;;;1.30;99.90;;;;;;4861009;29;20212;-82
2024/01/14 16:07:34;;;;;;;13.07;3.60;;;1.30;99.90;;;;;;4860495;29;20307;-83
2024/01/14 16:10:02;;;;;;;12.23;2.73;;;1.30;99.90;;;;;;4860400;29;20302;-83
2024/01/14 16:12:29;;;;;;;6.73;2.20;;;1.30;99.90;;;;;;4860489;29;20242;-82
2024/01/14 16:14:56;;;;;;;11.53;4.63;;;1.30;99.90;;;;;;4860353;29;20247;-82
2024/01/14 16:17:23;;;;;;;5.27;2.57;;;1.30;99.90;;;;;;4861225;29;20215;-83
2024/01/14 16:19:50;;;;;;;9.33;2.63;;;1.20;99.90;;;;;;4860680;29;20240;-78
2024/01/14 16:22:18;;;;;;;13.30;3.87;;;1.20;99.90;;;;;;4860515;29;20248;-83
2024/01/14 16:24:45;;;;;;;10.50;4.20;;;1.20;99.90;;;;;;4860865;29;20208;-79
2024/01/14 16:27:12;;;;;;;8.30;2.83;;;1.20;99.90;;;;;;4860652;29;20287;-80
2024/01/14 16:29:39;;;;;;;11.60;3.40;;;1.20;99.90;;;;;;4861113;29;20219;-81
2024/01/14 16:32:06;;;;;;;9.70;3.60;;;1.30;99.90;;;;;;4860381;29;20240;-81
2024/01/14 16:34:33;;;;;;;9.87;3.87;;;1.30;99.90;;;;;;4860828;29;20290;-81
2024/01/14 16:37:00;;;;;;;12.43;3.27;;;1.30;99.90;;;;;;4860811;29;20216;-78
2024/01/14 16:39:28;;;;;;;12.60;3.80;;;1.30;99.90;;;;;;4860554;29;20635;-81
2024/01/14 16:41:55;;;;;;;11.53;3.43;;;1.30;99.90;;;;;;4861532;29;20243;-77
2024/01/14 16:44:23;;;;;;;12.13;3.80;;;1.30;99.90;;;;;;4863974;29;20219;-79
2024/01/14 16:46:49;;;;;;;10.57;3.73;;;1.30;99.90;;;;;;4863367;29;20732;-78
2024/01/14 16:49:16;;;;;;;7.43;2.57;;;1.20;99.90;;;;;;4863769;29;20207;-83
2024/01/14 16:51:43;;;;;;;12.30;3.77;;;1.30;99.90;;;;;;4864020;29;20323;-81
2024/01/14 16:54:10;;;;;;;15.93;4.23;;;1.20;99.90;;;;;;4863920;29;20211;-83
2024/01/14 16:56:38;;;;;;;13.60;4.10;;;1.20;99.90;;;;;;4864162;29;20658;-83
2024/01/14 16:59:07;;;;;;;6.27;3.10;;;1.20;99.90;;;;;;4866479;29;20298;-79
2024/01/14 17:01:34;;;;;;;10.73;3.23;;;1.10;99.90;;;;;;4863869;29;20609;-82
2024/01/14 17:04:01;;;;;;;6.13;3.47;;;1.10;99.90;;;;;;4863764;29;20703;-81
2024/01/14 17:06:27;;;;;;;15.17;5.00;;;1.10;99.90;;;;;;4864173;29;20219;-77
2024/01/14 17:08:54;;;;;;;16.37;4.00;;;1.10;99.90;;;;;;4864091;29;20216;-81
2024/01/14 17:11:22;;;;;;;11.83;5.17;;;1.00;99.90;;;;;;4864197;29;20243;-83
2024/01/14 17:13:50;;;;;;;12.03;5.17;;;0.90;99.90;;;;;;4863915;29;20594;-81
2024/01/14 17:16:26;;;;;;;15.17;6.27;;;0.90;99.90;;;;;;4863757;29;20212;-80
2024/01/14 17:18:54;;;;;;;13.20;3.73;;;0.70;99.90;;;;;;4863607;29;20211;-81
2024/01/14 17:21:21;;;;;;;10.20;3.83;;;0.70;99.90;;;;;;4863976;29;20215;-77
2024/01/14 17:23:49;;;;;;;14.37;4.70;;;0.70;99.90;;;;;;4863664;29;20246;-81
2024/01/14 17:26:16;;;;;;;8.33;4.50;;;0.70;99.90;;;;;;4864299;29;20212;-81
2024/01/14 17:28:43;;;;;;;8.73;3.40;;;0.70;99.90;;;;;;4863863;29;20705;-81
2024/01/14 17:31:13;;;;;;;14.67;4.00;;;0.70;99.90;;;;;;4864091;29;20303;-82
2024/01/14 17:33:41;;;;;;;6.97;3.13;;;0.90;99.90;;;;;;4864056;29;20322;-82
2024/01/14 17:36:11;;;;;;;12.10;5.10;;;0.90;99.90;;;;;;4863791;29;20704;-80
2024/01/14 17:38:39;;;;;;;10.97;3.63;;;0.90;99.90;;;;;;4863614;29;20299;-80
2024/01/14 17:41:07;;;;;;;12.17;4.20;;;1.00;99.90;;;;;;4863508;29;20211;-81
2024/01/14 17:43:34;;;;;;;9.73;3.87;;;1.00;99.90;;;;;;4863591;29;20258;-83
2024/01/14 17:46:02;;;;;;;12.23;3.77;;;1.00;99.90;;;;;;4862795;29;20646;-81
2024/01/14 17:48:31;;;;;;;14.17;4.13;;;1.10;99.90;;;;;;4862900;29;20212;-77
2024/01/14 17:50:58;;;;;;;13.13;3.93;;;1.20;99.90;;;;;;4862625;29;20212;-79
2024/01/14 17:53:25;;;;;;;15.73;4.30;;;1.10;99.90;;;;;;4862985;29;20611;-82
2024/01/14 17:55:52;;;;;;;13.23;4.13;;;1.10;99.90;;;;;;4862810;29;20214;-81
2024/01/14 17:58:19;;;;;;;8.43;3.13;;;1.00;99.90;;;;;;4862992;29;20303;-81
2024/01/14 18:00:47;;;;;;;9.30;3.67;;;1.10;99.90;;;;;;4862815;29;20315;-81
2024/01/14 18:03:14;;;;;;;16.07;4.83;;;1.10;99.90;;;;;;4862610;29;20246;-83
2024/01/14 18:05:42;;;;;;;11.40;4.07;;;1.10;99.90;;;;;;4863148;29;20216;-81
2024/01/14 18:08:10;;;;;;;14.70;4.07;;;1.10;99.90;;;;;;4863499;29;20283;-79
2024/01/14 18:10:37;;;;;;;10.67;4.50;;;1.10;99.90;;;;;;4862885;29;20220;-83
2024/01/14 18:13:05;;;;;;;15.57;5.70;;;1.00;99.90;;;;;;4862192;29;20236;-77
2024/01/14 18:15:32;;;;;;;20.17;4.53;;;1.00;99.90;;;;;;4862471;29;20212;-82
2024/01/14 18:18:02;;;;;;;15.27;4.47;;;1.10;99.90;;;;;;4862489;29;20632;-82
2024/01/14 18:20:29;;;;;;;13.17;5.00;;;1.10;99.90;;;;;;4862669;29;20228;-82
2024/01/14 18:22:57;;;;;;;15.30;4.57;;;1.10;99.90;;;;;;4862372;29;20719;-80
2024/01/14 18:25:24;;;;;;;9.83;3.60;;;1.10;99.90;;;;;;4862557;29;20288;-81
2024/01/14 18:27:51;;;;;;;12.17;2.97;;;1.10;99.90;;;;;;4862224;29;20306;-82
2024/01/14 18:30:18;;;;;;;14.93;5.00;;;1.00;99.90;;;;;;4862363;29;20234;-79
2024/01/14 18:32:45;;;;;;;20.07;5.90;;;1.00;99.90;;;;;;4857187;29;20399;-79
2024/01/14 18:35:12;;;;;;;15.33;4.67;;;1.00;99.90;;;;;;4860924;29;20220;-81
2024/01/14 18:37:39;;;;;;;14.10;4.60;;;1.10;99.90;;;;;;4861241;29;20219;-78
2024/01/14 18:40:09;;;;;;;17.87;5.70;;;1.20;99.90;;;;;;4861211;29;20664;-81
2024/01/14 18:42:36;;;;;;;17.20;5.43;;;1.20;99.90;;;;;;4860263;29;20239;-79
2024/01/14 18:45:04;;;;;;;19.73;3.93;;;1.20;99.90;;;;;;4861339;29;20212;-80
2024/01/14 18:47:30;;;;;;;13.80;4.17;;;1.20;99.90;;;;;;4861626;29;20207;-81
2024/01/14 18:49:57;;;;;;;19.43;5.60;;;1.30;99.90;;;;;;4861316;29;20208;-81
2024/01/14 18:52:25;;;;;;;23.20;4.80;;;1.20;99.90;;;;;;4861045;29;20319;-82
2024/01/14 18:54:51;;;;;;;17.87;7.13;;;1.20;99.90;;;;;;4849158;29;20256;-82
2024/01/14 18:57:19;;;;;;;17.53;4.93;;;1.20;99.90;;;;;;4860463;29;20208;-81
2024/01/14 18:59:46;;;;;;;15.17;4.63;;;1.20;99.90;;;;;;4849727;29;20239;-79
2024/01/14 19:02:15;;;;;;;14.97;5.27;;;1.20;99.90;;;;;;4850700;29;20240;-81
2024/01/14 19:04:41;;;;;;;17.17;5.93;;;1.20;99.90;;;;;;4850915;29;20334;-80
2024/01/14 19:07:08;;;;;;;16.37;5.50;;;1.30;99.90;;;;;;4858448;29;20298;-80
2024/01/14 19:09:35;;;;;;;14.57;4.10;;;1.30;99.90;;;;;;4860847;29;20208;-82
2024/01/14 19:12:03;;;;;;;16.80;4.97;;;1.20;99.90;;;;;;4860900;29;20330;-77
2024/01/14 19:14:31;;;;;;;21.47;5.30;;;1.20;99.90;;;;;;4861730;29;20287;-80
2024/01/14 19:16:58;;;;;;;21.47;5.67;;;1.30;99.90;;;;;;4863122;29;20311;-78
2024/01/14 19:19:25;;;;;;;12.43;4.73;;;1.30;99.90;;;;;;4862775;29;20208;-80
2024/01/14 19:21:52;;;;;;;11.70;3.77;;;1.30;99.90;;;;;;4861243;29;20322;-81
2024/01/14 19:24:18;;;;;;;10.97;4.23;;;1.30;99.90;;;;;;4860788;29;20246;-81
2024/01/14 19:26:45;;;;;;;22.40;4.47;;;1.30;99.90;;;;;;4860966;29;20249;-80
2024/01/14 19:29:15;;;;;;;16.10;5.07;;;1.30;99.90;;;;;;4860753;29;20220;-81
2024/01/14 19:31:45;;;;;;;14.33;4.00;;;1.30;99.90;;;;;;4858380;29;20259;-80
2024/01/14 19:34:12;;;;;;;23.17;6.40;;;1.30;99.90;;;;;;4858848;29;20639;-81
2024/01/14 19:36:39;;;;;;;10.80;4.10;;;1.30;99.90;;;;;;4860509;29;20211;-81
2024/01/14 19:39:06;;;;;;;15.80;4.87;;;1.30;99.90;;;;;;4860388;29;20302;-78
2024/01/14 19:41:32;;;;;;;16.07;4.37;;;1.40;99.90;;;;;;4860926;29;20222;-80
2024/01/14 19:43:59;;;;;;;17.33;4.57;;;1.40;99.90;;;;;;4860309;29;20331;-78
2024/01/14 19:46:27;;;;;;;18.87;5.07;;;1.40;99.90;;;;;;4860266;29;20230;-82
2024/01/14 19:48:56;;;;;;;15.83;4.73;;;1.40;99.90;;;;;;4860510;29;20212;-81
2024/01/14 19:51:23;;;;;;;15.57;5.23;;;1.50;99.90;;;;;;4860396;29;20575;-78
2024/01/14 19:53:49;;;;;;;11.33;5.20;;;1.50;99.90;;;;;;4860578;29;20220;-81
2024/01/14 19:56:22;;;;;;;18.23;5.03;;;1.50;99.90;;;;;;4860877;29;20653;-82
2024/01/14 19:58:48;;;;;;;16.70;5.80;;;1.60;99.90;;;;;;4860632;29;20552;-78
2024/01/14 20:01:15;;;;;;;14.37;4.37;;;1.60;99.90;;;;;;4860550;29;20218;-77
2024/01/14 20:03:48;;;;;;;20.50;4.27;;;1.70;99.90;;;;;;4854202;29;20250;-78
2024/01/14 20:06:22;;;;;;;19.13;5.27;;;1.70;99.90;;;;;;4850721;29;20204;-81
2024/01/14 20:08:49;;;;;;;15.23;4.63;;;1.70;99.90;;;;;;4848985;29;20222;-78
2024/01/14 20:11:16;;;;;;;21.90;4.87;;;1.70;99.90;;;;;;4860031;29;20699;-78
2024/01/14 20:13:42;;;;;;;17.77;5.23;;;1.70;99.90;;;;;;4860448;29;20327;-82
2024/01/14 20:16:09;;;;;;;13.50;4.97;;;1.80;99.90;;;;;;4860529;29;20215;-82
2024/01/14 20:18:37;;;;;;;22.73;5.57;;;1.90;99.90;;;;;;4864644;29;20298;-82
2024/01/14 20:21:04;;;;;;;15.67;4.63;;;1.80;99.90;;;;;;4864188;29;20218;-81
2024/01/14 20:23:33;;;;;;;14.67;5.00;;;1.80;99.90;;;;;;4864141;29;20326;-82
2024/01/14 20:25:59;;;;;;;18.87;5.43;;;1.80;99.90;;;;;;4864348;29;20208;-81
2024/01/14 20:28:26;;;;;;;14.43;4.17;;;1.80;99.90;;;;;;4864144;29;20294;-80
2024/01/14 20:30:53;;;;;;;10.73;3.53;;;1.80;99.90;;;;;;4863902;29;20302;-80
2024/01/14 20:33:20;;;;;;;18.07;4.90;;;1.80;99.90;;;;;;4863912;29;20266;-81
2024/01/14 20:35:47;;;;;;;14.03;4.20;;;1.80;99.90;;;;;;4863978;29;20739;-82
2024/01/14 20:38:14;;;;;;;13.07;4.80;;;1.70;99.90;;;;;;4864344;29;20624;-81
2024/01/14 20:40:42;;;;;;;16.83;4.83;;;1.70;99.90;;;;;;4863930;29;20211;-81
2024/01/14 20:43:09;;;;;;;19.33;4.80;;;1.70;99.90;;;;;;4863917;29;20248;-81
2024/01/14 20:45:36;;;;;;;16.03;6.43;;;1.70;99.90;;;;;;4864009;29;20216;-81
2024/01/14 20:48:04;;;;;;;18.17;5.53;;;1.80;99.90;;;;;;4863849;29;20609;-80
2024/01/14 20:50:30;;;;;;;12.93;4.17;;;1.80;99.90;;;;;;4864078;29;20216;-78
2024/01/14 20:52:57;;;;;;;15.63;5.50;;;1.80;99.90;;;;;;4863776;29;20232;-82
2024/01/14 20:55:24;;;;;;;13.17;3.87;;;1.80;99.90;;;;;;4863357;29;20222;-81
2024/01/14 20:57:53;;;;;;;15.70;4.43;;;1.70;99.90;;;;;;4863377;29;20311;-81
2024/01/14 21:00:19;;;;;;;16.60;5.23;;;1.80;99.90;;;;;;4863030;29;20656;-82
2024/01/14 21:02:46;;;;;;;14.30;5.00;;;1.80;99.90;;;;;;4863530;29;20241;-79
2024/01/14 21:05:13;;;;;;;13.83;5.10;;;1.80;99.90;;;;;;4863054;29;20731;-81
2024/01/14 21:07:40;;;;;;;14.10;4.47;;;1.80;99.90;;;;;;4863379;29;20256;-81
2024/01/14 21:10:07;;;;;;;18.40;4.67;;;1.90;99.90;;;;;;4862538;29;20212;-78
2024/01/14 21:12:34;;;;;;;17.80;4.87;;;1.90;99.90;;;;;;4862859;29;20242;-81
2024/01/14 21:15:03;;;;;;;13.80;4.43;;;2.00;99.90;;;;;;4863268;29;20235;-82
2024/01/14 21:17:30;;;;;;;10.80;3.17;;;2.00;99.90;;;;;;4863281;29;20299;-82
2024/01/14 21:19:57;;;;;;;18.73;4.67;;;2.00;99.90;;;;;;4863301;29;20295;-82
2024/01/14 21:22:24;;;;;;;8.20;4.20;;;2.00;99.90;;;;;;4863132;29;20238;-81
2024/01/14 21:24:51;;;;;;;16.57;5.03;;;1.90;99.90;;;;;;4862876;29;20274;-82
2024/01/14 21:27:18;;;;;;;16.93;4.33;;;1.90;99.90;;;;;;4862650;29;20212;-78
2024/01/14 21:29:45;;;;;;;8.70;3.43;;;1.90;99.90;;;;;;4863002;29;20298;-82
2024/01/14 21:32:13;;;;;;;11.67;4.80;;;1.90;99.90;;;;;;4862890;29;20323;-81
2024/01/14 21:34:40;;;;;;;17.17;4.83;;;1.80;99.90;;;;;;4862624;29;20299;-81
2024/01/14 21:37:07;;;;;;;19.43;4.97;;;1.80;99.90;;;;;;4863109;29;20291;-81